Time;durP1;ratioP1;P1;durP2;ratioP2;P2;SDS_P1;SDS_P2;PMS_P1;PMS_P2;Temp;Humidity;BMP_temperature;BMP_pressure;BME280_temperature;BME280_humidity;BME280_pressure;Samples;Min_cycle;Max_cycle;Signal;HPM_P1;HPM_P2
2022/12/27 00:01:45;;;;;;;1.10;1.00;;;5.40;97.30;;;;;;4952506;28;20179;-87
2022/12/27 00:04:10;;;;;;;1.00;0.90;;;5.40;97.30;;;;;;4951914;28;20250;-87
2022/12/27 00:06:36;;;;;;;4.90;1.40;;;5.40;97.30;;;;;;4950853;28;20202;-86
2022/12/27 00:09:04;;;;;;;1.17;1.07;;;5.40;97.30;;;;;;4952615;29;20318;-88
2022/12/27 00:11:29;;;;;;;1.40;1.30;;;5.40;97.30;;;;;;4939513;29;20415;-87
2022/12/27 00:14:03;;;;;;;2.90;1.17;;;5.40;97.30;;;;;;4951988;28;20462;-87
2022/12/27 00:16:28;;;;;;;1.50;1.40;;;5.40;97.30;;;;;;4940111;29;20284;-87
2022/12/27 00:18:54;;;;;;;1.10;1.00;;;5.40;97.30;;;;;;4940676;28;20451;-88
2022/12/27 00:21:21;;;;;;;1.53;1.43;;;5.40;97.30;;;;;;4951979;29;20423;-87
2022/12/27 00:23:49;;;;;;;0.80;0.70;;;5.40;97.30;;;;;;4952163;29;20187;-87
2022/12/27 00:26:18;;;;;;;1.00;0.90;;;5.30;97.30;;;;;;4952137;28;21037;-87
2022/12/27 00:28:45;;;;;;;1.40;1.30;;;5.30;97.30;;;;;;4951913;28;20418;-87
2022/12/27 00:31:11;;;;;;;1.87;1.47;;;5.30;97.30;;;;;;4951692;28;20482;-87
2022/12/27 00:33:39;;;;;;;1.00;0.90;;;5.30;97.30;;;;;;4951589;28;20442;-86
2022/12/27 00:36:06;;;;;;;1.30;1.20;;;5.30;97.30;;;;;;4951462;28;20458;-86
2022/12/27 00:38:32;;;;;;;0.90;0.80;;;5.20;97.30;;;;;;4944869;29;20487;-87
2022/12/27 00:40:59;;;;;;;2.30;1.37;;;5.20;97.30;;;;;;4951735;28;20426;-87
2022/12/27 00:43:24;;;;;;;1.03;0.93;;;5.20;97.30;;;;;;4951411;29;20450;-87
2022/12/27 00:45:50;;;;;;;1.10;1.00;;;5.20;97.30;;;;;;4951708;28;20965;-87
2022/12/27 00:48:15;;;;;;;1.10;1.00;;;5.20;97.30;;;;;;4951018;29;20242;-87
2022/12/27 00:50:42;;;;;;;1.13;1.03;;;5.10;97.30;;;;;;4951448;28;20217;-87
2022/12/27 00:53:09;;;;;;;1.30;1.20;;;5.10;97.30;;;;;;4951098;29;20191;-87
2022/12/27 00:55:35;;;;;;;1.27;1.17;;;5.10;97.30;;;;;;4951058;28;20483;-87
2022/12/27 00:58:01;;;;;;;1.23;1.13;;;5.10;97.30;;;;;;4952557;28;20437;-87
2022/12/27 01:00:26;;;;;;;9.13;1.30;;;5.00;97.30;;;;;;4951490;29;20214;-86
2022/12/27 01:02:52;;;;;;;8.63;1.87;;;5.00;97.30;;;;;;4950465;29;20567;-86
2022/12/27 01:05:17;;;;;;;0.90;0.80;;;5.00;97.30;;;;;;4951271;28;20291;-87
2022/12/27 01:07:43;;;;;;;1.20;1.10;;;5.00;97.30;;;;;;4950246;28;20191;-87
2022/12/27 01:10:08;;;;;;;1.30;1.20;;;5.00;97.30;;;;;;4951138;28;20195;-87
2022/12/27 01:12:35;;;;;;;2.63;1.87;;;4.90;97.30;;;;;;4951262;29;20191;-87
2022/12/27 01:15:00;;;;;;;1.23;1.13;;;4.90;97.30;;;;;;4951703;28;20787;-87
2022/12/27 01:17:28;;;;;;;1.10;1.00;;;4.90;97.30;;;;;;4951124;28;20430;-87
2022/12/27 01:19:54;;;;;;;1.00;0.90;;;4.80;97.30;;;;;;4952531;28;20239;-87
2022/12/27 01:22:19;;;;;;;1.10;1.00;;;4.80;97.30;;;;;;4949905;28;20509;-87
2022/12/27 01:24:45;;;;;;;1.00;0.90;;;4.70;97.30;;;;;;4949918;28;20191;-87
2022/12/27 01:27:10;;;;;;;1.93;1.20;;;4.70;97.30;;;;;;4950356;28;20210;-86
2022/12/27 01:29:36;;;;;;;0.93;0.83;;;4.70;97.30;;;;;;4950952;28;20533;-86
2022/12/27 01:32:01;;;;;;;1.13;1.03;;;4.60;97.30;;;;;;4950938;28;20769;-87
2022/12/27 01:34:27;;;;;;;1.20;1.10;;;4.60;97.30;;;;;;4943642;28;20219;-86
2022/12/27 01:36:52;;;;;;;1.30;1.20;;;4.50;97.30;;;;;;4946053;29;20262;-86
2022/12/27 01:39:18;;;;;;;1.10;1.00;;;4.50;97.30;;;;;;4950854;28;20310;-87
2022/12/27 01:44:48;;;;;;;1.33;1.23;;;4.40;97.30;;;;;;4952541;29;20198;-87
2022/12/27 01:47:35;;;;;;;3.50;3.30;;;4.40;97.30;;;;;;4950912;28;20451;-87
2022/12/27 01:50:22;;;;;;;1.10;1.00;;;4.30;97.30;;;;;;4950747;28;20430;-86
2022/12/27 01:53:07;;;;;;;1.10;1.00;;;4.30;97.30;;;;;;4938965;28;20430;-86
2022/12/27 01:55:36;;;;;;;1.17;1.07;;;4.20;97.30;;;;;;4940111;28;20479;-85
2022/12/27 01:58:10;;;;;;;2.90;2.07;;;4.10;97.30;;;;;;4950801;28;20511;-87
2022/12/27 02:00:36;;;;;;;1.10;1.00;;;4.10;97.30;;;;;;4952558;28;20423;-86
2022/12/27 02:03:04;;;;;;;1.00;0.90;;;4.10;97.30;;;;;;4954574;28;20429;-88
2022/12/27 02:05:31;;;;;;;19.23;3.10;;;4.00;97.30;;;;;;4974761;28;20458;-89
2022/12/27 02:08:34;;;;;;;1.10;1.00;;;4.00;97.30;;;;;;4974611;29;20443;-88
2022/12/27 02:10:59;;;;;;;1.67;1.60;;;4.00;97.30;;;;;;4957079;28;20430;-86
2022/12/27 02:13:26;;;;;;;2.00;1.33;;;3.90;97.30;;;;;;4950543;29;20960;-85
2022/12/27 02:15:52;;;;;;;1.83;1.73;;;3.90;97.30;;;;;;4950500;28;20214;-86
2022/12/27 02:18:18;;;;;;;1.13;1.10;;;3.90;97.30;;;;;;4950871;28;20453;-86
2022/12/27 02:21:25;;;;;;;4.13;1.23;;;3.90;97.30;;;;;;4955435;28;20183;-86
2022/12/27 02:24:30;;;;;;;1.43;1.43;;;3.80;97.30;;;;;;4952584;28;20190;-86
2022/12/27 02:27:06;;;;;;;1.77;1.67;;;3.80;97.30;;;;;;4946604;29;20501;-86
2022/12/27 02:29:45;;;;;;;1.20;1.10;;;3.80;97.30;;;;;;4942732;29;20796;-86
2022/12/27 02:32:16;;;;;;;1.40;1.30;;;3.80;97.30;;;;;;4954130;28;20477;-86
2022/12/27 02:35:00;;;;;;;1.20;1.10;;;3.70;97.30;;;;;;4953284;28;20541;-86
2022/12/27 02:37:30;;;;;;;2.73;1.87;;;3.70;97.30;;;;;;4953979;29;20411;-87
2022/12/27 02:53:02;;;;;;;1.50;1.40;;;3.70;97.30;;;;;;4945311;28;20733;-85
2022/12/27 02:55:11;;;;;;;2.63;2.30;;;3.50;97.30;;;;;;4955343;29;20605;-87
2022/12/27 02:58:05;;;;;;;1.40;1.30;;;3.40;97.30;;;;;;4953900;29;20740;-86
2022/12/27 03:04:13;;;;;;;3.67;3.37;;;3.40;97.30;;;;;;4953875;28;20936;-85
2022/12/27 03:06:57;;;;;;;4.40;3.90;;;3.40;97.30;;;;;;4942429;28;20531;-86
2022/12/27 03:16:07;;;;;;;1.10;1.00;;;3.30;97.30;;;;;;4951642;29;20494;-87
2022/12/27 03:18:56;;;;;;;9.00;2.03;;;3.20;97.30;;;;;;4951737;29;20431;-86
2022/12/27 03:27:34;;;;;;;1.27;1.20;;;3.10;97.30;;;;;;4954307;28;20490;-88
2022/12/27 03:33:13;;;;;;;1.20;1.10;;;3.00;97.30;;;;;;4954553;29;20422;-87
2022/12/27 03:39:03;;;;;;;1.37;1.27;;;3.00;97.30;;;;;;4953945;29;20466;-85
2022/12/27 03:44:24;;;;;;;1.60;1.50;;;3.00;97.30;;;;;;4954328;29;20478;-86
2022/12/27 03:46:56;;;;;;;1.50;1.40;;;3.10;97.30;;;;;;4952664;28;20439;-85
2022/12/27 03:49:38;;;;;;;2.60;1.93;;;3.10;97.30;;;;;;4953120;29;20416;-86
2022/12/27 03:52:13;;;;;;;1.40;1.30;;;3.10;97.30;;;;;;4952865;29;20422;-86
2022/12/27 03:54:41;;;;;;;1.10;1.00;;;3.10;97.30;;;;;;4951692;28;20458;-86
2022/12/27 03:57:10;;;;;;;2.23;2.07;;;3.20;97.30;;;;;;5013332;22;20534;-86
2022/12/27 03:59:36;;;;;;;1.10;1.00;;;3.20;97.30;;;;;;5015223;28;20454;-85
2022/12/27 04:02:02;;;;;;;1.10;1.00;;;3.20;97.30;;;;;;5011189;28;20416;-87
2022/12/27 04:04:27;;;;;;;1.10;1.00;;;3.20;97.30;;;;;;5017664;28;20451;-87
2022/12/27 04:06:53;;;;;;;1.13;1.03;;;3.20;97.30;;;;;;5007002;28;20532;-86
2022/12/27 04:36:40;;;;;;;1.10;1.00;;;3.10;97.30;;;;;;4986263;28;20480;-87
2022/12/27 04:39:05;;;;;;;1.10;1.00;;;3.00;97.30;;;;;;4976798;28;20446;-86
2022/12/27 04:55:24;;;;;;;1.30;1.20;;;2.80;97.30;;;;;;4991679;28;21029;-86
2022/12/27 04:57:51;;;;;;;1.20;1.10;;;2.80;97.30;;;;;;4991512;28;20689;-86
2022/12/27 05:03:05;;;;;;;3.47;1.83;;;2.80;97.30;;;;;;4981677;28;20408;-87
2022/12/27 05:05:32;;;;;;;1.20;1.10;;;2.80;97.30;;;;;;4987583;28;20436;-87
2022/12/27 05:16:11;;;;;;;1.80;1.73;;;2.80;97.30;;;;;;4990125;28;20535;-86
2022/12/27 05:18:36;;;;;;;1.00;0.90;;;2.80;97.30;;;;;;4981641;28;20818;-86
2022/12/27 05:21:03;;;;;;;2.07;1.93;;;2.80;97.30;;;;;;4990249;28;20228;-86
2022/12/27 05:26:25;;;;;;;1.10;1.00;;;2.90;97.30;;;;;;4992055;28;20471;-86
2022/12/27 05:28:53;;;;;;;1.93;1.83;;;2.90;97.30;;;;;;4990427;28;20523;-85
2022/12/27 05:31:19;;;;;;;5.80;1.63;;;3.00;97.30;;;;;;4991684;28;20810;-86
2022/12/27 05:33:45;;;;;;;1.00;0.90;;;3.00;97.30;;;;;;4991997;28;20464;-86
2022/12/27 05:36:11;;;;;;;1.43;1.33;;;3.10;97.30;;;;;;4982838;28;21058;-86
2022/12/27 05:38:37;;;;;;;2.83;1.33;;;3.10;97.30;;;;;;4975256;28;20433;-86
2022/12/27 05:41:04;;;;;;;2.43;1.60;;;3.10;97.30;;;;;;4979002;28;20991;-86
2022/12/27 05:43:30;;;;;;;1.30;1.20;;;3.10;97.30;;;;;;4977730;28;20186;-85
2022/12/27 05:46:01;;;;;;;1.73;1.63;;;3.10;97.30;;;;;;4990690;28;21026;-85
2022/12/27 05:48:27;;;;;;;1.30;1.20;;;3.10;97.30;;;;;;4989870;28;20429;-85
2022/12/27 05:50:52;;;;;;;1.20;1.10;;;3.20;97.30;;;;;;4971995;28;20436;-86
2022/12/27 05:53:18;;;;;;;1.60;1.50;;;3.10;97.30;;;;;;4982466;28;20500;-85
2022/12/27 05:55:43;;;;;;;1.10;1.00;;;3.10;97.30;;;;;;4990779;28;20732;-84
2022/12/27 05:58:09;;;;;;;1.83;1.60;;;3.10;97.30;;;;;;4989340;28;20722;-86
2022/12/27 06:00:34;;;;;;;1.10;1.00;;;3.10;97.30;;;;;;4986014;28;20196;-85
2022/12/27 06:03:02;;;;;;;1.20;1.10;;;3.20;97.30;;;;;;4986998;28;20178;-86
2022/12/27 06:05:27;;;;;;;1.10;1.00;;;3.20;97.30;;;;;;4993705;28;20188;-86
2022/12/27 06:07:53;;;;;;;1.43;1.20;;;3.20;97.30;;;;;;4988698;28;20442;-86
2022/12/27 06:10:18;;;;;;;1.20;1.10;;;3.20;97.30;;;;;;4988325;28;20196;-86
2022/12/27 06:12:46;;;;;;;1.27;1.20;;;3.20;97.30;;;;;;4989168;28;20197;-87
2022/12/27 06:15:11;;;;;;;1.27;1.17;;;3.10;97.30;;;;;;4982086;28;20210;-84
2022/12/27 06:17:37;;;;;;;1.10;1.00;;;3.10;97.30;;;;;;4987790;28;20449;-86
2022/12/27 06:20:06;;;;;;;1.17;1.07;;;3.10;97.30;;;;;;4993828;28;20192;-85
2022/12/27 06:22:32;;;;;;;0.90;0.80;;;3.10;97.30;;;;;;4992110;28;20452;-88
2022/12/27 06:24:58;;;;;;;1.00;0.90;;;3.20;97.30;;;;;;4990500;28;20429;-85
2022/12/27 06:27:23;;;;;;;1.30;1.20;;;3.20;97.30;;;;;;4991866;28;20205;-86
2022/12/27 06:29:49;;;;;;;1.67;1.57;;;3.20;97.30;;;;;;4991633;28;20193;-86
2022/12/27 06:32:16;;;;;;;1.10;1.00;;;3.20;97.30;;;;;;4994752;28;20182;-87
2022/12/27 06:34:42;;;;;;;1.80;1.70;;;3.20;97.30;;;;;;4987088;28;20267;-86
2022/12/27 06:37:07;;;;;;;1.00;0.90;;;3.20;97.30;;;;;;4989030;28;20959;-89
2022/12/27 06:39:33;;;;;;;1.30;1.07;;;3.10;97.30;;;;;;4989732;28;20214;-85
2022/12/27 06:41:58;;;;;;;1.00;0.90;;;3.10;97.30;;;;;;4994817;28;20762;-88
2022/12/27 06:44:25;;;;;;;1.53;1.50;;;3.10;97.30;;;;;;4995340;28;20289;-86
2022/12/27 06:46:50;;;;;;;1.40;1.30;;;3.10;97.30;;;;;;4989629;28;20202;-87
2022/12/27 06:49:16;;;;;;;3.80;1.63;;;3.20;97.30;;;;;;4991498;28;20432;-86
2022/12/27 06:51:41;;;;;;;1.10;1.00;;;3.10;97.30;;;;;;4990312;28;20669;-86
2022/12/27 06:54:07;;;;;;;1.20;1.10;;;3.10;97.30;;;;;;4989075;28;20197;-87
2022/12/27 06:56:32;;;;;;;1.17;1.07;;;3.10;97.30;;;;;;4992076;28;20237;-85
2022/12/27 06:58:58;;;;;;;1.03;0.97;;;3.10;97.30;;;;;;4988745;28;20708;-85
2022/12/27 07:01:26;;;;;;;1.00;0.90;;;3.20;97.30;;;;;;4994840;28;20191;-86
2022/12/27 07:03:54;;;;;;;1.20;1.10;;;3.20;97.30;;;;;;4977808;28;20658;-86
2022/12/27 07:06:21;;;;;;;1.03;0.93;;;3.20;97.30;;;;;;4980728;28;20507;-90
2022/12/27 07:08:48;;;;;;;1.30;1.20;;;3.20;97.30;;;;;;4995430;28;20464;-85
2022/12/27 07:11:15;;;;;;;1.87;0.90;;;3.20;97.30;;;;;;4991385;28;20469;-87
2022/12/27 07:13:44;;;;;;;1.73;1.63;;;3.20;97.30;;;;;;4986570;28;20436;-85
2022/12/27 07:16:11;;;;;;;2.07;1.93;;;3.20;97.30;;;;;;4984583;28;20477;-85
2022/12/27 07:18:37;;;;;;;1.57;1.47;;;3.20;97.30;;;;;;4986374;28;20906;-86
2022/12/27 07:21:08;;;;;;;1.20;1.10;;;3.20;97.30;;;;;;4985518;28;20452;-86
2022/12/27 07:23:34;;;;;;;1.57;1.47;;;3.20;97.30;;;;;;4992041;28;20421;-87
2022/12/27 07:26:05;;;;;;;3.27;1.20;;;3.20;97.30;;;;;;4993656;28;20511;-87
2022/12/27 07:28:31;;;;;;;10.80;2.67;;;3.20;97.30;;;;;;4991658;28;20480;-86
2022/12/27 07:30:57;;;;;;;1.10;1.00;;;3.20;97.30;;;;;;4989961;28;20429;-86
2022/12/27 07:33:22;;;;;;;1.10;1.00;;;3.20;97.30;;;;;;4983642;28;20484;-86
2022/12/27 07:35:48;;;;;;;1.20;1.10;;;3.30;97.30;;;;;;4986597;28;20673;-86
2022/12/27 07:38:13;;;;;;;1.20;1.10;;;3.30;97.30;;;;;;4986857;28;20178;-86
2022/12/27 07:40:39;;;;;;;4.20;1.50;;;3.30;97.30;;;;;;4991229;28;20187;-85
2022/12/27 07:43:04;;;;;;;1.37;1.37;;;3.40;97.30;;;;;;4988265;28;20265;-85
2022/12/27 07:45:31;;;;;;;1.00;0.90;;;3.40;97.30;;;;;;4986409;28;20178;-86
2022/12/27 07:47:57;;;;;;;2.07;1.93;;;3.50;97.30;;;;;;4983153;28;20214;-87
2022/12/27 07:50:23;;;;;;;8.80;1.27;;;3.50;97.30;;;;;;5006576;28;20422;-86
2022/12/27 07:52:48;;;;;;;1.20;1.10;;;3.60;97.30;;;;;;4984324;28;20564;-86
2022/12/27 07:55:14;;;;;;;1.10;1.00;;;3.70;97.30;;;;;;4988645;28;20197;-86
2022/12/27 07:57:39;;;;;;;1.30;1.20;;;3.70;97.30;;;;;;4984860;28;20488;-86
2022/12/27 08:00:06;;;;;;;10.13;2.33;;;3.70;97.30;;;;;;4988008;28;20657;-88
2022/12/27 08:02:31;;;;;;;1.60;1.50;;;3.80;97.30;;;;;;4987497;28;20191;-86
2022/12/27 08:04:57;;;;;;;1.50;1.40;;;3.80;97.30;;;;;;4981522;28;20829;-86
2022/12/27 08:07:24;;;;;;;2.67;1.57;;;3.80;97.30;;;;;;4989634;28;20202;-86
2022/12/27 08:09:49;;;;;;;1.10;1.00;;;3.90;97.30;;;;;;4984318;28;20193;-87
2022/12/27 08:12:15;;;;;;;1.70;1.60;;;3.90;97.30;;;;;;4987573;28;20425;-85
2022/12/27 08:14:41;;;;;;;1.00;0.90;;;3.90;97.30;;;;;;4979117;28;20213;-86
2022/12/27 08:17:26;;;;;;;1.87;1.77;;;4.00;97.30;;;;;;4988030;28;20577;-86
2022/12/27 08:19:53;;;;;;;1.10;1.00;;;4.00;97.30;;;;;;4988806;28;20516;-85
2022/12/27 08:22:18;;;;;;;1.10;1.00;;;4.10;97.30;;;;;;4992510;28;20617;-86
2022/12/27 08:24:44;;;;;;;2.27;2.07;;;4.20;97.30;;;;;;4990292;28;20487;-85
2022/12/27 08:27:10;;;;;;;13.63;3.57;;;4.20;97.30;;;;;;4988488;28;20278;-86
2022/12/27 08:29:36;;;;;;;1.10;1.00;;;4.30;97.30;;;;;;5004963;28;20600;-86
2022/12/27 08:32:02;;;;;;;1.73;1.63;;;4.30;97.30;;;;;;4990378;28;20424;-86
2022/12/27 08:34:27;;;;;;;1.70;1.60;;;4.40;97.30;;;;;;4984883;28;20461;-86
2022/12/27 08:36:53;;;;;;;1.53;1.43;;;4.40;97.30;;;;;;4985127;28;20285;-85
2022/12/27 08:39:19;;;;;;;1.20;1.10;;;4.50;97.30;;;;;;4982126;28;20593;-86
2022/12/27 08:41:44;;;;;;;1.37;1.27;;;4.50;97.30;;;;;;4979211;28;20197;-86
2022/12/27 08:44:10;;;;;;;28.47;2.00;;;4.60;97.30;;;;;;4992734;28;20181;-87
2022/12/27 08:46:36;;;;;;;1.30;1.20;;;4.60;97.30;;;;;;4978322;28;20268;-85
2022/12/27 08:49:03;;;;;;;1.57;1.53;;;4.70;97.30;;;;;;4991975;28;20947;-86
2022/12/27 08:51:29;;;;;;;1.40;1.20;;;4.70;97.30;;;;;;4991809;28;20426;-85
2022/12/27 08:53:54;;;;;;;1.57;1.47;;;4.70;97.30;;;;;;4974367;28;20898;-87
2022/12/27 08:56:20;;;;;;;1.23;1.17;;;4.80;97.30;;;;;;4984898;28;20237;-86
2022/12/27 08:58:48;;;;;;;1.07;0.97;;;4.90;97.30;;;;;;4991295;28;20189;-85
2022/12/27 09:01:13;;;;;;;1.30;1.20;;;4.90;97.30;;;;;;4992492;28;20177;-88
2022/12/27 09:03:39;;;;;;;1.30;1.20;;;4.90;97.30;;;;;;4993251;28;20413;-86
2022/12/27 09:06:22;;;;;;;1.27;1.17;;;5.00;97.30;;;;;;4991402;28;20731;-86
2022/12/27 09:08:49;;;;;;;1.37;1.27;;;5.00;97.30;;;;;;4982107;28;20189;-85
2022/12/27 09:11:18;;;;;;;1.40;1.30;;;5.10;97.30;;;;;;4984596;28;20420;-85
2022/12/27 09:13:44;;;;;;;1.10;1.00;;;5.20;97.30;;;;;;4990067;28;20421;-85
2022/12/27 09:16:19;;;;;;;1.27;1.17;;;5.20;97.30;;;;;;4997014;28;20511;-84
2022/12/27 09:18:47;;;;;;;1.30;1.20;;;5.20;97.30;;;;;;4993634;28;20177;-87
2022/12/27 09:21:15;;;;;;;1.30;1.20;;;5.20;97.30;;;;;;4989105;28;20924;-86
2022/12/27 09:23:41;;;;;;;3.70;1.77;;;5.30;97.30;;;;;;4983692;28;20420;-88
2022/12/27 09:26:12;;;;;;;1.00;0.90;;;5.30;97.30;;;;;;4988191;28;20434;-87
2022/12/27 09:28:39;;;;;;;1.00;0.90;;;5.40;97.30;;;;;;4989470;28;20459;-86
2022/12/27 09:31:06;;;;;;;1.20;1.10;;;5.40;97.30;;;;;;4978934;28;20422;-84
2022/12/27 09:33:31;;;;;;;1.40;1.30;;;5.50;97.30;;;;;;4986721;28;20430;-88
2022/12/27 09:36:06;;;;;;;1.10;1.00;;;5.50;97.30;;;;;;4983857;28;20466;-86
2022/12/27 09:38:31;;;;;;;1.07;0.97;;;5.60;97.30;;;;;;4984707;28;20279;-86
2022/12/27 09:41:00;;;;;;;1.00;0.90;;;5.60;97.30;;;;;;4985020;28;20463;-87
2022/12/27 09:43:52;;;;;;;1.00;0.90;;;5.70;97.30;;;;;;4975129;28;20762;-87
2022/12/27 09:46:25;;;;;;;1.00;0.90;;;5.70;97.30;;;;;;4988633;28;20449;-88
2022/12/27 09:48:53;;;;;;;1.93;1.47;;;5.80;97.30;;;;;;4989806;28;20425;-87
2022/12/27 09:51:34;;;;;;;3.70;1.43;;;5.80;97.30;;;;;;4989193;28;20725;-87
2022/12/27 09:54:12;;;;;;;1.33;1.23;;;5.90;97.30;;;;;;4986597;28;20428;-86
2022/12/27 09:56:38;;;;;;;1.53;1.30;;;5.90;97.30;;;;;;4984339;28;20584;-87
2022/12/27 09:59:18;;;;;;;1.30;1.30;;;6.00;97.30;;;;;;4997445;23;20583;-86
2022/12/27 10:01:46;;;;;;;1.20;1.10;;;6.00;97.30;;;;;;4988493;28;20232;-86
2022/12/27 10:04:13;;;;;;;1.00;0.90;;;6.10;97.30;;;;;;4988483;28;20413;-86
2022/12/27 10:06:47;;;;;;;1.07;0.97;;;6.10;97.30;;;;;;4986978;28;20421;-86
2022/12/27 10:09:22;;;;;;;0.90;0.80;;;6.10;97.30;;;;;;4986391;28;20998;-87
2022/12/27 10:12:15;;;;;;;1.07;1.00;;;6.20;97.30;;;;;;4990247;28;21109;-85
2022/12/27 10:15:00;;;;;;;1.27;1.17;;;6.30;97.30;;;;;;4988743;28;20464;-86
2022/12/27 10:17:58;;;;;;;1.20;1.10;;;6.40;97.30;;;;;;4992022;28;20425;-84
2022/12/27 10:20:57;;;;;;;6.10;2.17;;;6.50;97.30;;;;;;4984556;28;20980;-84
2022/12/27 10:23:28;;;;;;;4.20;2.23;;;6.50;97.30;;;;;;4988160;28;20424;-84
2022/12/27 10:25:58;;;;;;;1.20;1.10;;;6.40;97.30;;;;;;4980520;28;20450;-84
2022/12/27 10:28:56;;;;;;;1.57;1.47;;;6.40;97.30;;;;;;4991271;28;20468;-83
2022/12/27 10:31:23;;;;;;;1.37;1.27;;;6.40;97.30;;;;;;4990594;28;20931;-85
2022/12/27 10:33:50;;;;;;;1.10;1.10;;;6.50;97.30;;;;;;4987126;28;20425;-84
2022/12/27 10:36:20;;;;;;;1.10;1.00;;;6.50;97.30;;;;;;4989129;28;20472;-86
2022/12/27 10:38:45;;;;;;;1.10;1.00;;;6.60;97.30;;;;;;4988347;28;20448;-85
2022/12/27 10:42:02;;;;;;;2.37;1.73;;;6.50;97.30;;;;;;4990106;28;20429;-85
2022/12/27 10:44:28;;;;;;;1.20;1.10;;;6.40;97.30;;;;;;4945005;28;20210;-85
2022/12/27 10:46:55;;;;;;;1.33;1.00;;;6.40;97.30;;;;;;4984875;28;20425;-87
2022/12/27 10:49:27;;;;;;;1.27;1.17;;;6.40;97.30;;;;;;4988186;28;20520;-86
2022/12/27 10:51:56;;;;;;;1.20;1.10;;;6.40;97.30;;;;;;4988532;28;20412;-86
2022/12/27 10:54:25;;;;;;;1.30;1.10;;;6.30;97.30;;;;;;4987767;28;20465;-85
2022/12/27 10:56:51;;;;;;;1.10;1.00;;;6.30;97.30;;;;;;4987132;28;20773;-84
2022/12/27 10:59:20;;;;;;;0.90;0.80;;;6.30;97.30;;;;;;4991678;28;20510;-86
2022/12/27 11:01:50;;;;;;;1.13;1.03;;;6.40;97.30;;;;;;4991009;28;20413;-86
2022/12/27 11:04:17;;;;;;;1.30;1.20;;;6.50;97.30;;;;;;4988453;28;20409;-86
2022/12/27 11:06:45;;;;;;;1.20;1.10;;;6.50;97.30;;;;;;4991200;28;20421;-86
2022/12/27 11:09:25;;;;;;;5.50;1.63;;;6.60;97.30;;;;;;4988026;28;21022;-86
2022/12/27 11:11:51;;;;;;;1.37;1.27;;;6.60;97.30;;;;;;4990762;28;20417;-87
2022/12/27 11:14:19;;;;;;;1.10;1.00;;;6.60;97.30;;;;;;4992443;28;20804;-87
2022/12/27 11:16:46;;;;;;;1.43;1.20;;;6.60;97.30;;;;;;4991885;28;20173;-85
2022/12/27 11:19:26;;;;;;;1.20;1.10;;;6.50;97.30;;;;;;4991355;28;20449;-86
2022/12/27 11:21:53;;;;;;;6.43;1.40;;;6.50;97.30;;;;;;4990711;28;20439;-88
2022/12/27 11:24:20;;;;;;;1.47;1.37;;;6.50;97.30;;;;;;4990557;28;20413;-87
2022/12/27 11:26:57;;;;;;;1.63;1.30;;;6.50;97.30;;;;;;4990542;28;20420;-87
2022/12/27 11:29:25;;;;;;;1.00;0.90;;;6.70;97.30;;;;;;4990518;28;20441;-87
2022/12/27 11:31:52;;;;;;;1.10;1.00;;;6.80;97.30;;;;;;4990782;28;20456;-85
2022/12/27 11:34:27;;;;;;;2.00;1.37;;;6.90;97.30;;;;;;4990280;28;20460;-87
2022/12/27 11:37:00;;;;;;;0.93;0.83;;;7.00;97.30;;;;;;4989530;28;20425;-87
2022/12/27 11:39:42;;;;;;;1.07;0.97;;;7.00;97.30;;;;;;4988306;28;20444;-87
2022/12/27 11:42:44;;;;;;;1.03;0.93;;;7.00;97.30;;;;;;5004328;28;20414;-85
2022/12/27 11:45:16;;;;;;;1.93;1.50;;;7.00;97.30;;;;;;4977814;28;20428;-88
2022/12/27 11:47:57;;;;;;;1.00;0.90;;;7.00;97.30;;;;;;4989645;28;20535;-88
2022/12/27 11:50:26;;;;;;;1.43;1.00;;;6.80;97.30;;;;;;4991890;28;20429;-87
2022/12/27 11:53:28;;;;;;;1.10;1.00;;;6.70;97.30;;;;;;4989862;28;20851;-86
2022/12/27 11:55:53;;;;;;;1.10;1.00;;;6.60;97.30;;;;;;4990915;28;20559;-86
2022/12/27 11:58:45;;;;;;;1.10;1.00;;;6.50;97.30;;;;;;4990450;28;20571;-86
2022/12/27 12:01:35;;;;;;;2.97;2.77;;;6.50;97.30;;;;;;4985521;28;20281;-86
2022/12/27 12:04:25;;;;;;;2.67;1.23;;;6.50;97.30;;;;;;4991104;28;20421;-86
2022/12/27 12:07:31;;;;;;;1.43;1.43;;;6.50;97.30;;;;;;4978695;28;20429;-86
2022/12/27 12:10:34;;;;;;;1.10;1.00;;;6.50;97.30;;;;;;5001293;28;20889;-86
2022/12/27 12:13:27;;;;;;;1.67;1.57;;;6.50;97.30;;;;;;4985545;28;20536;-87
2022/12/27 12:16:02;;;;;;;1.20;1.10;;;6.50;97.30;;;;;;4972460;28;20477;-88
2022/12/27 12:18:52;;;;;;;1.20;1.10;;;6.40;97.30;;;;;;4978186;28;20460;-87
2022/12/27 12:21:29;;;;;;;1.00;0.90;;;6.40;97.30;;;;;;4991285;28;20863;-88
2022/12/27 12:24:16;;;;;;;7.13;1.47;;;6.40;97.30;;;;;;4987629;28;20413;-88
2022/12/27 12:27:05;;;;;;;1.07;1.00;;;6.50;97.30;;;;;;4983457;28;20476;-87
2022/12/27 12:30:03;;;;;;;1.20;1.10;;;6.60;97.30;;;;;;4999120;28;20442;-88
2022/12/27 12:32:43;;;;;;;1.63;1.53;;;6.70;97.30;;;;;;4990895;28;20425;-87
2022/12/27 12:35:24;;;;;;;2.07;1.70;;;6.70;97.30;;;;;;4978811;28;20476;-87
2022/12/27 12:38:01;;;;;;;2.10;1.77;;;6.70;97.30;;;;;;4984567;28;20539;-87
2022/12/27 12:40:51;;;;;;;2.30;2.10;;;6.90;97.30;;;;;;4989088;28;20936;-85
2022/12/27 12:43:46;;;;;;;1.73;1.73;;;7.20;97.30;;;;;;4990244;28;20432;-86
2022/12/27 12:46:50;;;;;;;26.87;1.83;;;7.50;97.30;;;;;;4989541;28;20747;-86
2022/12/27 12:49:35;;;;;;;1.17;1.07;;;7.90;97.30;;;;;;4989010;28;20724;-87
2022/12/27 12:52:30;;;;;;;1.10;1.00;;;8.20;97.30;;;;;;4990329;28;20413;-87
2022/12/27 12:55:01;;;;;;;1.47;1.37;;;8.30;96.30;;;;;;4989230;28;20464;-87
2022/12/27 12:57:36;;;;;;;1.10;1.00;;;8.40;95.90;;;;;;4984139;28;20500;-86
2022/12/27 13:00:24;;;;;;;1.10;1.00;;;8.50;95.70;;;;;;4988308;28;20776;-87
2022/12/27 13:03:08;;;;;;;2.80;1.80;;;8.40;95.70;;;;;;4990485;28;20427;-87
2022/12/27 13:05:42;;;;;;;1.57;1.47;;;8.80;96.00;;;;;;4981081;28;20422;-84
2022/12/27 13:08:19;;;;;;;5.10;1.20;;;9.00;95.10;;;;;;5002191;22;20492;-86
2022/12/27 13:11:09;;;;;;;1.57;1.47;;;9.10;94.30;;;;;;4985507;28;20479;-87
2022/12/27 13:13:44;;;;;;;1.10;1.00;;;9.20;94.00;;;;;;4976336;28;20525;-85
2022/12/27 13:16:30;;;;;;;0.90;0.80;;;9.30;93.10;;;;;;4982034;28;20487;-87
2022/12/27 13:19:23;;;;;;;1.07;0.97;;;9.50;93.40;;;;;;4969395;28;20541;-87
2022/12/27 13:22:19;;;;;;;1.33;1.20;;;9.30;92.60;;;;;;4965098;28;20431;-86
2022/12/27 13:25:07;;;;;;;1.10;1.00;;;8.90;94.20;;;;;;4963409;28;20434;-89
2022/12/27 13:27:55;;;;;;;6.03;3.30;;;8.70;96.90;;;;;;4964612;28;20433;-91
2022/12/27 13:30:29;;;;;;;2.83;2.63;;;7.90;97.30;;;;;;4964555;28;20469;-89
2022/12/27 13:33:30;;;;;;;1.40;1.30;;;7.50;97.30;;;;;;4970339;28;20954;-89
2022/12/27 13:36:07;;;;;;;4.30;3.37;;;7.10;97.30;;;;;;4925430;28;20489;-89
2022/12/27 13:39:01;;;;;;;1.30;1.20;;;6.90;97.30;;;;;;4963540;28;20450;-86
2022/12/27 13:41:47;;;;;;;2.80;1.43;;;6.80;97.30;;;;;;4967916;28;20859;-88
2022/12/27 13:44:31;;;;;;;1.77;1.53;;;6.90;97.30;;;;;;4955901;28;20419;-89
2022/12/27 13:47:38;;;;;;;1.00;0.90;;;6.90;97.30;;;;;;4963809;28;20423;-88
2022/12/27 13:50:17;;;;;;;1.30;1.20;;;7.20;97.30;;;;;;4971505;28;20491;-87
2022/12/27 13:52:55;;;;;;;5.17;1.53;;;7.60;97.30;;;;;;4963699;28;20464;-87
2022/12/27 13:55:52;;;;;;;1.20;1.10;;;7.80;97.30;;;;;;4973032;28;20469;-88
2022/12/27 13:58:43;;;;;;;1.30;1.20;;;7.90;96.60;;;;;;4971150;28;20442;-89
2022/12/27 14:01:26;;;;;;;2.70;1.73;;;7.80;96.30;;;;;;4971552;28;20503;-89
2022/12/27 14:04:19;;;;;;;2.30;2.10;;;7.80;95.80;;;;;;4968132;28;20430;-88
2022/12/27 14:06:52;;;;;;;1.30;1.20;;;7.90;96.20;;;;;;4967809;28;20438;-88
2022/12/27 14:09:39;;;;;;;1.67;1.67;;;7.80;95.50;;;;;;4967698;28;20510;-89
2022/12/27 14:12:29;;;;;;;1.30;1.20;;;7.70;96.00;;;;;;4971617;28;20444;-86
2022/12/27 14:14:57;;;;;;;1.30;1.20;;;7.60;95.70;;;;;;4971006;28;20461;-87
2022/12/27 14:17:47;;;;;;;1.00;0.90;;;7.60;96.00;;;;;;4973743;28;20433;-87
2022/12/27 14:20:14;;;;;;;1.00;0.90;;;7.60;95.80;;;;;;4967262;28;20410;-87
2022/12/27 14:23:03;;;;;;;1.03;0.93;;;7.50;95.60;;;;;;4970438;28;20521;-87
2022/12/27 14:25:43;;;;;;;1.00;0.90;;;7.30;95.80;;;;;;4964006;28;20421;-87
2022/12/27 14:28:28;;;;;;;1.63;1.37;;;7.30;96.40;;;;;;4966137;28;20464;-86
2022/12/27 14:31:23;;;;;;;2.40;1.70;;;7.20;96.30;;;;;;4958641;28;20414;-86
2022/12/27 14:34:14;;;;;;;1.10;1.00;;;7.20;96.40;;;;;;4968196;28;20429;-88
2022/12/27 14:37:17;;;;;;;1.00;0.90;;;7.10;97.00;;;;;;4966864;28;20502;-87
2022/12/27 14:39:58;;;;;;;1.63;1.53;;;7.10;96.80;;;;;;4984893;28;21023;-88
2022/12/27 14:43:09;;;;;;;2.40;1.10;;;7.10;97.10;;;;;;4972403;28;20679;-88
2022/12/27 14:45:59;;;;;;;1.10;1.00;;;7.00;97.30;;;;;;4958359;28;20472;-88
2022/12/27 14:48:46;;;;;;;2.10;1.67;;;6.90;97.30;;;;;;4954937;28;20446;-88
2022/12/27 14:51:39;;;;;;;1.00;0.90;;;6.80;97.30;;;;;;4964307;28;20417;-88
2022/12/27 14:54:44;;;;;;;1.00;0.90;;;6.70;97.30;;;;;;4962415;28;20438;-87
2022/12/27 14:57:46;;;;;;;1.10;1.00;;;6.50;97.30;;;;;;4969171;28;20423;-88
2022/12/27 15:00:24;;;;;;;1.13;1.03;;;6.40;97.30;;;;;;4973147;28;20441;-87
2022/12/27 15:03:05;;;;;;;1.10;1.00;;;6.40;97.30;;;;;;4971306;28;20517;-87
2022/12/27 15:05:56;;;;;;;1.00;0.90;;;6.30;97.30;;;;;;4958747;28;20431;-87
2022/12/27 15:08:40;;;;;;;0.93;0.83;;;6.20;97.30;;;;;;4965718;28;20545;-87